Time;durP1;ratioP1;P1;durP2;ratioP2;P2;SDS_P1;SDS_P2;PMS_P1;PMS_P2;Temp;Humidity;BMP_temperature;BMP_pressure;BME280_temperature;BME280_humidity;BME280_pressure;Samples;Min_cycle;Max_cycle;Signal;HPM_P1;HPM_P2
2023/12/31 00:01:47;;;;;;;1.30;0.77;;;22.60;55.20;;;;;;4975677;28;88331;-61
2023/12/31 00:04:14;;;;;;;1.40;0.75;;;22.60;55.30;;;;;;4978690;28;89242;-61
2023/12/31 00:06:42;;;;;;;1.45;0.80;;;22.60;55.30;;;;;;4989627;28;87482;-61
2023/12/31 00:09:07;;;;;;;1.30;0.88;;;22.50;55.30;;;;;;4975714;28;88406;-61
2023/12/31 00:11:33;;;;;;;2.88;0.75;;;22.50;55.30;;;;;;4974926;28;88297;-61
2023/12/31 00:14:00;;;;;;;2.40;1.20;;;22.40;55.30;;;;;;4971424;28;88596;-62
2023/12/31 00:16:26;;;;;;;1.58;0.90;;;22.40;55.20;;;;;;4973759;28;87182;-62
2023/12/31 00:18:52;;;;;;;1.80;1.10;;;22.40;55.20;;;;;;4994452;28;89548;-61
2023/12/31 00:21:18;;;;;;;1.40;1.08;;;22.40;55.20;;;;;;4974429;28;87695;-61
2023/12/31 00:23:43;;;;;;;1.20;0.75;;;22.40;55.40;;;;;;4971156;28;88011;-62
2023/12/31 00:26:10;;;;;;;1.08;0.73;;;22.40;55.50;;;;;;4968842;28;88103;-61
2023/12/31 00:28:36;;;;;;;1.80;1.02;;;22.40;55.40;;;;;;4977431;28;87582;-62
2023/12/31 00:31:02;;;;;;;1.13;0.80;;;22.30;55.50;;;;;;4979295;28;88372;-61
2023/12/31 00:33:28;;;;;;;1.35;0.93;;;22.30;55.50;;;;;;4973220;28;94418;-61
2023/12/31 00:35:54;;;;;;;1.20;0.88;;;22.30;55.50;;;;;;4976035;28;86945;-62
2023/12/31 00:38:19;;;;;;;1.55;0.88;;;22.30;55.60;;;;;;4976863;28;88224;-62
2023/12/31 00:40:45;;;;;;;1.83;1.20;;;22.30;55.40;;;;;;4970065;28;88812;-61
2023/12/31 00:43:12;;;;;;;1.40;0.70;;;22.20;55.40;;;;;;4975943;28;87357;-62
2023/12/31 00:45:37;;;;;;;1.77;0.98;;;22.20;55.40;;;;;;4977744;28;88725;-62
2023/12/31 00:48:04;;;;;;;1.38;0.85;;;22.20;55.40;;;;;;4968115;28;89499;-61
2023/12/31 00:50:32;;;;;;;0.90;0.80;;;22.20;55.40;;;;;;4950743;28;89296;-62
2023/12/31 00:52:57;;;;;;;0.98;0.85;;;22.20;55.50;;;;;;4951478;28;91244;-62
2023/12/31 00:55:23;;;;;;;1.20;0.88;;;22.20;55.40;;;;;;4951003;28;87711;-61
2023/12/31 00:57:49;;;;;;;0.95;0.60;;;22.10;56.10;;;;;;4953131;28;90570;-61
2023/12/31 01:00:16;;;;;;;0.85;0.55;;;22.10;55.50;;;;;;4976588;28;87949;-61
2023/12/31 01:02:42;;;;;;;1.27;0.77;;;22.10;55.40;;;;;;4988979;28;88329;-62
2023/12/31 01:05:08;;;;;;;1.60;0.98;;;22.10;55.50;;;;;;4978245;28;87503;-61
2023/12/31 01:07:33;;;;;;;1.25;0.60;;;22.10;55.50;;;;;;4973572;28;87966;-61
2023/12/31 01:09:59;;;;;;;0.90;0.80;;;22.10;55.50;;;;;;4977738;28;88129;-62
2023/12/31 01:12:25;;;;;;;1.38;1.08;;;22.10;55.60;;;;;;4974827;28;87319;-62
2023/12/31 01:14:50;;;;;;;1.10;0.70;;;22.10;55.60;;;;;;4973405;28;88446;-62
2023/12/31 01:17:16;;;;;;;1.10;0.82;;;22.10;55.50;;;;;;4975607;28;88252;-61
2023/12/31 01:19:41;;;;;;;1.35;0.82;;;22.00;55.60;;;;;;4976276;28;87394;-62
2023/12/31 01:22:07;;;;;;;3.28;1.23;;;22.00;55.60;;;;;;4974457;28;87490;-61
2023/12/31 01:24:33;;;;;;;1.85;1.40;;;22.00;55.50;;;;;;4976915;28;87920;-61
2023/12/31 01:26:59;;;;;;;1.25;0.70;;;22.00;55.60;;;;;;4970586;28;87362;-61
2023/12/31 01:29:25;;;;;;;1.00;0.80;;;22.00;55.60;;;;;;4975705;28;87693;-62
2023/12/31 01:31:51;;;;;;;0.90;0.65;;;22.00;55.50;;;;;;4990647;28;88867;-61
2023/12/31 01:34:17;;;;;;;0.80;0.75;;;21.90;55.60;;;;;;4989478;28;87701;-61
2023/12/31 01:36:42;;;;;;;1.63;0.70;;;21.90;55.60;;;;;;4978731;28;87444;-61
2023/12/31 01:39:09;;;;;;;0.98;0.88;;;21.90;55.60;;;;;;4970167;28;89836;-61
2023/12/31 01:41:35;;;;;;;1.65;1.10;;;21.90;55.60;;;;;;4988922;28;89514;-61
2023/12/31 01:44:03;;;;;;;1.30;0.77;;;21.90;55.40;;;;;;4968966;28;87706;-62
2023/12/31 01:46:31;;;;;;;0.88;0.70;;;21.90;55.60;;;;;;4979570;28;87523;-61
2023/12/31 01:48:58;;;;;;;2.38;1.00;;;21.90;55.70;;;;;;4979244;28;88667;-62
2023/12/31 01:51:25;;;;;;;0.80;0.60;;;21.90;55.40;;;;;;4990030;28;88032;-61
2023/12/31 01:53:51;;;;;;;0.70;0.60;;;21.80;55.40;;;;;;4975604;28;88918;-61
2023/12/31 01:56:19;;;;;;;2.35;1.00;;;21.80;55.60;;;;;;4972124;28;90111;-60
2023/12/31 01:58:46;;;;;;;1.17;0.70;;;21.80;55.50;;;;;;4975323;28;87838;-61
2023/12/31 02:01:13;;;;;;;1.17;0.90;;;21.80;55.60;;;;;;4974898;28;87068;-61
2023/12/31 02:03:39;;;;;;;1.08;0.85;;;21.80;55.50;;;;;;4980703;28;88622;-62
2023/12/31 02:06:06;;;;;;;1.30;0.70;;;21.80;55.60;;;;;;4969647;28;87434;-61
2023/12/31 02:08:32;;;;;;;0.95;0.85;;;21.80;55.50;;;;;;4976269;28;89059;-61
2023/12/31 02:10:57;;;;;;;2.03;0.90;;;21.80;55.70;;;;;;4972493;28;89009;-61
2023/12/31 02:13:23;;;;;;;1.10;0.52;;;21.80;55.50;;;;;;4976720;28;87711;-62
2023/12/31 02:15:52;;;;;;;1.88;0.82;;;21.80;55.40;;;;;;4979778;28;87392;-61
2023/12/31 02:18:43;;;;;;;0.70;0.70;;;21.80;55.60;;;;;;4976064;28;88141;-62
2023/12/31 02:21:11;;;;;;;1.33;0.80;;;21.70;55.50;;;;;;4969023;28;86371;-61
2023/12/31 02:23:37;;;;;;;1.40;0.80;;;21.70;55.50;;;;;;4973292;28;90110;-62
2023/12/31 02:26:08;;;;;;;1.42;1.00;;;21.70;55.60;;;;;;4974727;28;87424;-61
2023/12/31 02:28:35;;;;;;;0.70;0.63;;;21.70;55.50;;;;;;4972839;28;89532;-62
2023/12/31 02:31:00;;;;;;;0.90;0.70;;;21.70;55.60;;;;;;4976744;28;88259;-61
2023/12/31 02:33:28;;;;;;;1.58;0.90;;;21.70;55.50;;;;;;4993186;28;87651;-61
2023/12/31 02:35:54;;;;;;;0.50;0.50;;;21.60;55.50;;;;;;4974581;28;87027;-62
2023/12/31 02:38:20;;;;;;;0.95;0.63;;;21.70;55.50;;;;;;4971775;28;88670;-61
2023/12/31 02:40:46;;;;;;;3.58;1.15;;;21.60;55.50;;;;;;4975865;28;89176;-62
2023/12/31 02:43:13;;;;;;;1.15;0.70;;;21.60;55.70;;;;;;4995638;28;87373;-61
2023/12/31 02:45:39;;;;;;;0.88;0.70;;;21.60;55.40;;;;;;4976333;28;86873;-62
2023/12/31 02:48:05;;;;;;;1.17;0.73;;;21.60;55.60;;;;;;4974183;28;88304;-61
2023/12/31 02:50:31;;;;;;;2.00;0.95;;;21.60;55.50;;;;;;4978251;28;87995;-61
2023/12/31 02:52:57;;;;;;;2.90;0.80;;;21.60;55.40;;;;;;4974361;28;88188;-62
2023/12/31 02:55:23;;;;;;;0.77;0.73;;;21.60;55.40;;;;;;4977642;28;87497;-61
2023/12/31 02:57:49;;;;;;;0.98;0.90;;;21.60;55.40;;;;;;4978608;28;88666;-61
2023/12/31 03:00:16;;;;;;;0.70;0.70;;;21.60;55.50;;;;;;4974658;28;88951;-61
2023/12/31 03:02:43;;;;;;;1.23;0.80;;;21.60;56.10;;;;;;4971311;28;87626;-62
2023/12/31 03:05:09;;;;;;;1.42;0.82;;;21.50;55.40;;;;;;4991050;28;88362;-61
2023/12/31 03:07:35;;;;;;;1.65;0.90;;;21.50;55.40;;;;;;4972372;28;88279;-62
2023/12/31 03:10:02;;;;;;;0.63;0.60;;;21.50;55.40;;;;;;4993810;28;90924;-61
2023/12/31 03:12:28;;;;;;;2.03;0.80;;;21.50;55.50;;;;;;4969262;28;88065;-62
2023/12/31 03:14:56;;;;;;;0.82;0.70;;;21.50;55.50;;;;;;4972213;28;88136;-61
2023/12/31 03:17:22;;;;;;;1.33;0.60;;;21.50;55.50;;;;;;4989401;28;90873;-62
2023/12/31 03:19:50;;;;;;;1.00;0.60;;;21.50;55.50;;;;;;4978054;28;88353;-61
2023/12/31 03:22:15;;;;;;;1.27;0.70;;;21.50;55.50;;;;;;4973985;28;87908;-62
2023/12/31 03:24:42;;;;;;;1.00;0.63;;;21.50;55.50;;;;;;4982137;28;87635;-62
2023/12/31 03:27:09;;;;;;;0.75;0.60;;;21.50;55.40;;;;;;4973332;28;88241;-62
2023/12/31 03:29:35;;;;;;;1.38;0.88;;;21.50;55.40;;;;;;4972661;28;88913;-62
2023/12/31 03:32:02;;;;;;;1.48;0.90;;;21.50;55.60;;;;;;4970817;28;87779;-61
2023/12/31 03:34:27;;;;;;;1.08;0.60;;;21.40;55.30;;;;;;4990187;28;88387;-61
2023/12/31 03:36:54;;;;;;;0.80;0.60;;;21.40;55.40;;;;;;4979246;28;88188;-62
2023/12/31 03:39:20;;;;;;;0.57;0.57;;;21.40;55.50;;;;;;4976973;28;87602;-61
2023/12/31 03:41:47;;;;;;;1.67;0.70;;;21.40;55.60;;;;;;4974176;28;88590;-61
2023/12/31 03:44:13;;;;;;;1.08;0.80;;;21.40;55.30;;;;;;4971396;28;87713;-62
2023/12/31 03:46:39;;;;;;;0.80;0.65;;;21.40;55.30;;;;;;4978554;28;87460;-62
2023/12/31 03:49:05;;;;;;;1.45;0.88;;;21.40;55.40;;;;;;4973078;28;88038;-61
2023/12/31 03:51:31;;;;;;;1.35;0.90;;;21.40;55.10;;;;;;4994709;28;87200;-61
2023/12/31 03:53:57;;;;;;;1.45;0.77;;;21.40;55.20;;;;;;4975326;28;87363;-62
2023/12/31 03:56:23;;;;;;;1.23;0.70;;;21.40;55.30;;;;;;4972326;28;90079;-61
2023/12/31 03:58:50;;;;;;;0.85;0.75;;;21.40;55.30;;;;;;4971028;28;88517;-62
2023/12/31 04:01:15;;;;;;;1.23;0.80;;;21.40;55.40;;;;;;4974516;28;86916;-61
2023/12/31 04:03:41;;;;;;;1.42;0.75;;;21.40;55.30;;;;;;4976613;28;87536;-62
2023/12/31 04:06:07;;;;;;;0.70;0.57;;;21.30;55.30;;;;;;4971953;28;90297;-62
2023/12/31 04:08:33;;;;;;;0.77;0.70;;;21.30;55.30;;;;;;4965960;28;89392;-61
2023/12/31 04:11:00;;;;;;;1.00;0.80;;;21.30;55.20;;;;;;4977130;28;87537;-61
2023/12/31 04:13:29;;;;;;;0.63;0.55;;;21.30;55.20;;;;;;4972547;28;87948;-62
2023/12/31 04:15:54;;;;;;;1.13;0.60;;;21.30;55.20;;;;;;4972586;28;88992;-62
2023/12/31 04:18:20;;;;;;;1.23;0.80;;;21.30;55.30;;;;;;4969873;28;87400;-61
2023/12/31 04:20:46;;;;;;;1.00;0.90;;;21.30;55.30;;;;;;4988621;28;87385;-62
2023/12/31 04:23:12;;;;;;;1.25;0.73;;;21.30;55.20;;;;;;4975054;28;87047;-61
2023/12/31 04:25:37;;;;;;;1.17;0.77;;;21.30;55.20;;;;;;4971909;28;90279;-61
2023/12/31 04:28:04;;;;;;;0.70;0.60;;;21.30;55.20;;;;;;4970868;28;88314;-62
2023/12/31 04:30:29;;;;;;;0.50;0.50;;;21.30;55.30;;;;;;4977489;28;88908;-61
2023/12/31 04:32:55;;;;;;;1.05;0.77;;;21.30;55.30;;;;;;4975531;28;87582;-61
2023/12/31 04:35:21;;;;;;;1.10;0.68;;;21.30;55.30;;;;;;4975447;28;87817;-61
2023/12/31 04:37:47;;;;;;;0.88;0.50;;;21.20;55.20;;;;;;4985675;28;88201;-61
2023/12/31 04:40:13;;;;;;;0.68;0.57;;;21.30;55.30;;;;;;4971293;28;87556;-62
2023/12/31 04:42:38;;;;;;;1.10;1.00;;;21.20;55.40;;;;;;4979060;28;87872;-61
2023/12/31 04:45:08;;;;;;;0.93;0.80;;;21.20;55.30;;;;;;4971308;28;89065;-61
2023/12/31 04:47:36;;;;;;;0.95;0.82;;;21.20;55.30;;;;;;4975658;28;88892;-60
2023/12/31 04:50:02;;;;;;;1.75;0.73;;;21.30;55.20;;;;;;4974438;28;88062;-61
2023/12/31 04:52:28;;;;;;;0.63;0.57;;;21.20;55.30;;;;;;4972829;28;87190;-61
2023/12/31 04:54:53;;;;;;;1.30;0.90;;;21.20;55.30;;;;;;4975087;28;90046;-61
2023/12/31 04:57:19;;;;;;;0.88;0.70;;;21.20;55.20;;;;;;4976901;28;88998;-62
2023/12/31 04:59:45;;;;;;;0.82;0.60;;;21.20;55.30;;;;;;4976773;28;87509;-61
2023/12/31 05:02:11;;;;;;;0.88;0.60;;;21.20;55.20;;;;;;4985857;28;88694;-61
2023/12/31 05:04:39;;;;;;;0.70;0.60;;;21.20;55.30;;;;;;4971913;28;89444;-61
2023/12/31 05:07:08;;;;;;;0.73;0.57;;;21.20;55.30;;;;;;4971509;28;87984;-61
2023/12/31 05:09:33;;;;;;;0.80;0.80;;;21.20;55.40;;;;;;4975060;28;87399;-62
2023/12/31 05:11:59;;;;;;;1.05;0.70;;;21.20;55.40;;;;;;4985945;28;87853;-61
2023/12/31 05:14:25;;;;;;;0.98;0.70;;;21.20;55.60;;;;;;4975677;28;87329;-61
2023/12/31 05:16:50;;;;;;;1.98;1.00;;;21.20;55.50;;;;;;4972158;28;88300;-62
2023/12/31 05:19:16;;;;;;;1.17;0.70;;;21.10;55.40;;;;;;4973204;28;88218;-62
2023/12/31 05:21:42;;;;;;;1.00;0.65;;;21.10;55.30;;;;;;4979315;28;87873;-61
2023/12/31 05:24:08;;;;;;;0.75;0.70;;;21.10;55.20;;;;;;4974925;28;89079;-61
2023/12/31 05:26:34;;;;;;;0.50;0.50;;;21.10;55.30;;;;;;4980852;28;88283;-61
2023/12/31 05:28:59;;;;;;;0.60;0.60;;;21.10;55.40;;;;;;4978932;28;88189;-61
2023/12/31 05:31:25;;;;;;;1.08;0.70;;;21.10;55.30;;;;;;4980519;28;87399;-61
2023/12/31 05:33:51;;;;;;;0.57;0.57;;;21.10;55.30;;;;;;4976629;28;88379;-61
2023/12/31 05:36:18;;;;;;;0.93;0.70;;;21.10;55.20;;;;;;4976548;28;88348;-61
2023/12/31 05:38:44;;;;;;;0.68;0.63;;;21.10;55.30;;;;;;4978088;28;87570;-62
2023/12/31 05:41:10;;;;;;;0.80;0.60;;;21.10;55.30;;;;;;4988537;28;87984;-62
2023/12/31 05:43:36;;;;;;;0.70;0.60;;;21.10;55.30;;;;;;4976313;28;89656;-61
2023/12/31 05:46:02;;;;;;;0.75;0.60;;;21.10;55.10;;;;;;4979714;28;89056;-62
2023/12/31 05:48:28;;;;;;;0.65;0.60;;;21.10;55.00;;;;;;4978842;28;87606;-61
2023/12/31 05:50:54;;;;;;;0.52;0.52;;;21.10;55.10;;;;;;4979290;28;87315;-61
2023/12/31 05:53:19;;;;;;;0.70;0.70;;;21.10;55.10;;;;;;4979136;28;88087;-61
2023/12/31 05:55:48;;;;;;;0.85;0.70;;;21.00;55.10;;;;;;4980344;28;88002;-61
2023/12/31 05:58:14;;;;;;;0.80;0.60;;;21.00;55.20;;;;;;4993131;28;87597;-61
2023/12/31 06:00:40;;;;;;;1.13;0.70;;;21.00;55.20;;;;;;4979675;28;87489;-61
2023/12/31 06:03:06;;;;;;;0.80;0.60;;;21.10;55.10;;;;;;4972826;28;90888;-61
2023/12/31 06:05:32;;;;;;;1.08;0.73;;;21.00;55.00;;;;;;4976779;28;88689;-61
2023/12/31 06:07:57;;;;;;;0.88;0.73;;;21.10;55.10;;;;;;4976156;28;88353;-61
2023/12/31 06:10:24;;;;;;;1.13;0.80;;;21.00;55.10;;;;;;4994737;28;89838;-62
2023/12/31 06:12:51;;;;;;;0.90;0.70;;;21.00;55.00;;;;;;4976823;28;89297;-61
2023/12/31 06:15:17;;;;;;;1.33;0.80;;;21.00;55.00;;;;;;4975336;28;89093;-62
2023/12/31 06:17:42;;;;;;;0.85;0.70;;;21.00;55.00;;;;;;4975713;28;87908;-61
2023/12/31 06:20:09;;;;;;;0.60;0.60;;;21.00;54.90;;;;;;4975906;28;88511;-62
2023/12/31 06:22:35;;;;;;;3.38;1.00;;;21.00;54.30;;;;;;4976917;28;89804;-62
2023/12/31 06:25:01;;;;;;;1.13;0.80;;;21.00;54.50;;;;;;4961731;28;87282;-62
2023/12/31 06:27:27;;;;;;;1.20;0.65;;;21.00;54.10;;;;;;4993011;28;87612;-61
2023/12/31 06:29:53;;;;;;;1.05;0.80;;;21.00;54.20;;;;;;4992183;28;89446;-60
2023/12/31 06:32:23;;;;;;;1.20;0.60;;;20.90;54.30;;;;;;4975840;28;89347;-62
2023/12/31 06:34:48;;;;;;;;;;;21.00;54.10;;;;;;4983075;28;88832;-61
2023/12/31 06:37:15;;;;;;;2.33;0.80;;;20.90;54.40;;;;;;4972626;28;87392;-61
2023/12/31 06:39:44;;;;;;;2.00;0.88;;;21.00;54.50;;;;;;4975554;28;88451;-62
2023/12/31 06:42:10;;;;;;;;;;;21.00;54.40;;;;;;4977042;28;87557;-63
2023/12/31 06:44:36;;;;;;;1.73;0.80;;;21.00;54.50;;;;;;4979459;28;87648;-62
2023/12/31 06:47:02;;;;;;;1.73;0.88;;;21.00;54.50;;;;;;4992231;28;87872;-63
2023/12/31 06:49:28;;;;;;;1.42;1.00;;;21.00;55.00;;;;;;4972696;28;87382;-61
2023/12/31 06:51:54;;;;;;;3.10;1.20;;;21.00;55.10;;;;;;4955421;28;88234;-62
2023/12/31 06:54:20;;;;;;;1.65;0.85;;;21.10;55.10;;;;;;4955405;28;87817;-62
2023/12/31 06:56:45;;;;;;;1.38;0.82;;;21.10;55.10;;;;;;4970277;28;88744;-61
2023/12/31 06:59:11;;;;;;;1.50;0.85;;;21.10;54.70;;;;;;4975262;28;87621;-61
2023/12/31 07:01:37;;;;;;;2.45;0.80;;;21.20;54.90;;;;;;4978008;28;88528;-62
2023/12/31 07:04:05;;;;;;;1.30;0.70;;;21.20;54.80;;;;;;4979867;28;88331;-62
2023/12/31 07:06:32;;;;;;;0.95;0.73;;;21.20;54.70;;;;;;4995452;28;88116;-61
2023/12/31 07:08:58;;;;;;;1.27;0.70;;;21.30;54.60;;;;;;4974023;28;87540;-62
2023/12/31 07:11:24;;;;;;;2.33;1.10;;;21.30;54.70;;;;;;4975641;28;87713;-62
2023/12/31 07:13:49;;;;;;;1.20;0.70;;;21.30;54.60;;;;;;4979437;28;88425;-61
2023/12/31 07:19:38;;;;;;;1.92;0.80;;;21.30;55.00;;;;;;4974903;28;87697;-62
2023/12/31 07:22:04;;;;;;;1.70;1.08;;;21.30;55.10;;;;;;4976055;28;88746;-61
2023/12/31 07:24:32;;;;;;;3.72;0.88;;;21.40;55.00;;;;;;4977123;28;88246;-61
2023/12/31 07:26:58;;;;;;;1.73;0.98;;;21.30;55.10;;;;;;4972345;28;87273;-61
2023/12/31 07:29:25;;;;;;;1.52;0.80;;;21.40;55.20;;;;;;4991921;28;87865;-61
2023/12/31 07:31:52;;;;;;;3.08;1.10;;;21.40;55.00;;;;;;4973116;28;89098;-61
2023/12/31 07:34:18;;;;;;;2.30;1.00;;;21.30;54.90;;;;;;4973290;28;89304;-61
2023/12/31 07:37:27;;;;;;;1.50;0.80;;;21.30;55.00;;;;;;4972276;28;88157;-62
2023/12/31 07:39:52;;;;;;;6.90;1.02;;;21.30;54.90;;;;;;4992461;28;88025;-62
2023/12/31 07:42:19;;;;;;;2.85;1.02;;;21.30;55.00;;;;;;4973785;28;88893;-62
2023/12/31 07:44:46;;;;;;;1.85;1.00;;;21.30;54.90;;;;;;4956126;28;87533;-61
2023/12/31 07:47:12;;;;;;;2.10;0.90;;;21.30;55.10;;;;;;4974318;28;88375;-61
2023/12/31 07:49:38;;;;;;;2.50;1.05;;;21.30;54.90;;;;;;4980594;28;88442;-62
2023/12/31 07:52:04;;;;;;;3.67;1.02;;;21.40;55.00;;;;;;4972803;28;89757;-61
2023/12/31 07:54:30;;;;;;;10.88;1.60;;;21.40;55.30;;;;;;4976005;28;87780;-62
2023/12/31 07:56:56;;;;;;;6.47;1.90;;;21.50;55.30;;;;;;4975874;28;86937;-61
2023/12/31 07:59:21;;;;;;;16.70;2.92;;;21.50;55.30;;;;;;4973263;28;87527;-62
2023/12/31 08:01:48;;;;;;;6.78;2.05;;;21.60;55.50;;;;;;4976966;28;89588;-62
2023/12/31 08:04:14;;;;;;;8.55;1.90;;;21.70;55.60;;;;;;4976187;28;89232;-62
2023/12/31 08:06:40;;;;;;;11.07;3.08;;;21.70;55.50;;;;;;4977601;28;87004;-63
2023/12/31 08:09:05;;;;;;;9.90;2.63;;;21.70;55.30;;;;;;4974537;28;87587;-62
2023/12/31 08:11:32;;;;;;;12.80;2.78;;;21.80;55.50;;;;;;4976321;28;89355;-62
2023/12/31 08:13:58;;;;;;;10.95;2.97;;;21.80;55.60;;;;;;4974659;28;89668;-62
2023/12/31 08:16:23;;;;;;;12.90;2.90;;;21.90;55.50;;;;;;4977438;28;87583;-63
2023/12/31 08:18:49;;;;;;;16.38;3.22;;;21.90;55.20;;;;;;4976519;28;87000;-62
2023/12/31 08:21:15;;;;;;;20.15;5.93;;;21.90;55.60;;;;;;4976524;28;88831;-63
2023/12/31 08:23:41;;;;;;;15.23;4.20;;;21.90;55.30;;;;;;4975927;28;87924;-63
2023/12/31 08:26:09;;;;;;;20.48;4.68;;;21.90;55.10;;;;;;4973800;28;87570;-63
2023/12/31 08:28:34;;;;;;;18.77;4.22;;;21.90;55.10;;;;;;4975609;28;87269;-64
2023/12/31 08:31:00;;;;;;;14.40;4.97;;;22.00;55.20;;;;;;4979406;28;88290;-63
2023/12/31 08:33:26;;;;;;;17.63;5.00;;;22.00;55.10;;;;;;4975796;28;88074;-63
2023/12/31 08:35:52;;;;;;;21.17;5.10;;;22.00;55.30;;;;;;4977106;28;88806;-63
2023/12/31 08:38:19;;;;;;;18.15;5.07;;;22.00;54.90;;;;;;4986545;28;88590;-63
2023/12/31 08:40:44;;;;;;;18.80;4.78;;;22.00;55.10;;;;;;4973071;28;89053;-65
2023/12/31 08:43:10;;;;;;;14.05;4.43;;;22.10;55.20;;;;;;4967503;28;87857;-63
2023/12/31 08:45:39;;;;;;;19.98;5.38;;;22.10;55.10;;;;;;4975673;28;87750;-62
2023/12/31 08:48:07;;;;;;;14.67;3.67;;;22.10;55.20;;;;;;4970177;28;87210;-62
2023/12/31 08:50:33;;;;;;;14.68;3.90;;;22.10;55.10;;;;;;4973810;28;89210;-62
2023/12/31 08:52:59;;;;;;;13.95;4.60;;;22.20;55.00;;;;;;4971772;28;87948;-61
2023/12/31 08:55:25;;;;;;;12.18;4.00;;;22.10;54.60;;;;;;4975508;28;87078;-61
2023/12/31 08:57:50;;;;;;;10.00;3.42;;;22.20;54.60;;;;;;4989339;28;87631;-61
2023/12/31 09:00:17;;;;;;;12.02;3.42;;;22.20;54.70;;;;;;4975082;28;89699;-63
2023/12/31 09:02:44;;;;;;;15.85;3.88;;;22.20;54.60;;;;;;4969922;28;89752;-62
2023/12/31 09:05:09;;;;;;;12.10;3.33;;;22.20;54.50;;;;;;4973571;28;87443;-62
2023/12/31 09:07:36;;;;;;;10.52;3.72;;;22.20;55.00;;;;;;4967861;28;87982;-62
2023/12/31 09:10:06;;;;;;;14.15;4.22;;;22.30;55.00;;;;;;4990143;28;89199;-62
2023/12/31 09:12:32;;;;;;;10.60;3.85;;;22.30;54.90;;;;;;4973316;28;92678;-62
2023/12/31 09:14:58;;;;;;;13.57;4.05;;;22.30;54.60;;;;;;4973902;28;88098;-61
2023/12/31 09:17:24;;;;;;;10.05;3.28;;;22.30;54.40;;;;;;4969307;28;87724;-62
2023/12/31 09:19:51;;;;;;;9.80;3.63;;;22.30;54.10;;;;;;4988363;28;87579;-62
2023/12/31 09:22:17;;;;;;;8.63;2.90;;;22.30;54.20;;;;;;4973287;28;87466;-62
2023/12/31 09:24:42;;;;;;;10.05;3.13;;;22.30;54.10;;;;;;4974720;28;87880;-62
2023/12/31 09:27:58;;;;;;;8.07;2.72;;;22.30;53.90;;;;;;4975046;28;89438;-63
2023/12/31 09:30:24;;;;;;;11.02;2.85;;;22.30;53.90;;;;;;4986229;28;89440;-62
2023/12/31 09:32:49;;;;;;;10.85;3.20;;;22.30;53.60;;;;;;4974400;28;89750;-63
2023/12/31 09:35:15;;;;;;;17.48;5.18;;;22.40;53.50;;;;;;4968926;28;86968;-62
2023/12/31 09:37:43;;;;;;;10.50;3.95;;;22.40;52.70;;;;;;4951675;28;87987;-62
2023/12/31 09:40:10;;;;;;;18.67;6.47;;;22.40;52.40;;;;;;4952104;28;89227;-62
2023/12/31 09:42:46;;;;;;;13.35;5.05;;;22.40;52.40;;;;;;4974291;28;87539;-62
2023/12/31 09:45:14;;;;;;;15.57;5.15;;;22.40;52.00;;;;;;4971484;28;87527;-62
2023/12/31 09:47:41;;;;;;;15.25;4.57;;;22.40;51.90;;;;;;4972969;28;87756;-62
2023/12/31 09:50:08;;;;;;;19.17;5.15;;;22.40;51.40;;;;;;4972833;28;88773;-62
2023/12/31 09:52:34;;;;;;;14.35;3.75;;;22.50;51.20;;;;;;4970568;28;90236;-62
2023/12/31 09:55:02;;;;;;;9.38;3.67;;;22.50;50.90;;;;;;4980075;28;87077;-62
2023/12/31 09:57:30;;;;;;;12.15;4.20;;;22.40;50.40;;;;;;4971517;28;92225;-63
2023/12/31 09:59:57;;;;;;;12.57;3.35;;;22.40;49.90;;;;;;4970897;28;89268;-61
2023/12/31 10:02:22;;;;;;;10.27;3.45;;;22.50;49.60;;;;;;4970000;28;88231;-62
2023/12/31 10:04:51;;;;;;;17.02;3.97;;;22.50;49.40;;;;;;4968348;28;87594;-62
2023/12/31 10:07:17;;;;;;;8.00;2.55;;;22.50;49.10;;;;;;4976926;28;86933;-62
2023/12/31 10:09:43;;;;;;;8.43;3.03;;;22.50;48.20;;;;;;4976290;28;87602;-62
2023/12/31 10:12:09;;;;;;;8.48;2.38;;;22.50;48.60;;;;;;4974670;28;87821;-62
2023/12/31 10:14:34;;;;;;;11.52;2.83;;;22.50;48.30;;;;;;4979189;28;88344;-62
2023/12/31 10:17:00;;;;;;;8.82;3.08;;;22.50;48.10;;;;;;4975076;28;88877;-61
2023/12/31 10:19:26;;;;;;;9.48;3.00;;;22.60;49.10;;;;;;4975187;28;87850;-61
2023/12/31 10:21:51;;;;;;;5.82;2.67;;;22.60;49.40;;;;;;4978716;28;89127;-62
2023/12/31 10:24:29;;;;;;;6.78;2.22;;;22.50;51.20;;;;;;4976725;28;87524;-61
2023/12/31 10:26:56;;;;;;;7.18;2.53;;;22.50;54.00;;;;;;4977551;28;87897;-62
2023/12/31 10:29:21;;;;;;;4.70;1.67;;;22.50;54.00;;;;;;4975643;28;87773;-61
2023/12/31 10:31:48;;;;;;;6.22;2.00;;;22.50;54.20;;;;;;4977349;28;87853;-61
2023/12/31 10:34:15;;;;;;;7.45;2.00;;;22.50;53.10;;;;;;4974211;28;87409;-62
2023/12/31 10:36:43;;;;;;;3.72;1.48;;;22.50;52.80;;;;;;4979213;28;87726;-61
2023/12/31 10:39:09;;;;;;;2.35;1.48;;;22.50;51.70;;;;;;4974767;28;89385;-61
2023/12/31 10:41:37;;;;;;;4.38;1.55;;;22.40;51.20;;;;;;4968980;28;88271;-61
2023/12/31 10:44:13;;;;;;;4.03;1.52;;;22.40;51.00;;;;;;4976901;28;87642;-62
2023/12/31 10:46:41;;;;;;;3.78;1.45;;;22.40;50.80;;;;;;4976264;28;87216;-62
2023/12/31 10:49:10;;;;;;;3.47;1.10;;;22.50;50.90;;;;;;4979679;28;88267;-63
2023/12/31 10:51:44;;;;;;;3.15;0.95;;;22.50;50.80;;;;;;4973883;28;88682;-63
2023/12/31 10:54:20;;;;;;;4.30;1.55;;;22.50;50.90;;;;;;4973195;28;88789;-62
2023/12/31 10:56:48;;;;;;;2.15;1.10;;;22.50;51.00;;;;;;4978297;28;86954;-62
2023/12/31 10:59:16;;;;;;;4.95;1.60;;;22.50;51.20;;;;;;4975383;28;89015;-62
2023/12/31 11:01:43;;;;;;;4.15;1.48;;;22.50;51.40;;;;;;4977484;28;88020;-62
2023/12/31 11:04:11;;;;;;;2.90;1.10;;;22.50;51.60;;;;;;4980979;28;88628;-61
2023/12/31 11:06:39;;;;;;;4.30;1.10;;;22.60;51.80;;;;;;4972786;28;88081;-62
2023/12/31 11:09:08;;;;;;;2.63;1.10;;;22.60;51.90;;;;;;4975250;28;87448;-62
2023/12/31 11:11:34;;;;;;;3.10;1.30;;;22.60;52.10;;;;;;4973966;28;89411;-62
2023/12/31 11:14:04;;;;;;;4.68;1.17;;;22.60;52.10;;;;;;4976466;28;87366;-62
2023/12/31 11:17:06;;;;;;;1.88;0.82;;;22.60;52.10;;;;;;4966758;28;87569;-63
2023/12/31 11:19:31;;;;;;;2.92;1.35;;;22.60;51.80;;;;;;4974081;28;89484;-63
2023/12/31 11:22:09;;;;;;;2.67;0.98;;;22.60;51.50;;;;;;4978591;28;87793;-62
2023/12/31 11:24:35;;;;;;;1.60;0.95;;;22.60;51.10;;;;;;4968163;28;88109;-62
2023/12/31 11:27:07;;;;;;;6.80;0.88;;;22.60;51.00;;;;;;4989355;28;87747;-63
2023/12/31 11:29:33;;;;;;;3.92;1.20;;;22.60;50.80;;;;;;4975068;28;89326;-62
2023/12/31 11:31:59;;;;;;;2.97;1.23;;;22.60;50.50;;;;;;4977035;28;88136;-62
2023/12/31 11:34:25;;;;;;;1.38;0.70;;;22.60;50.20;;;;;;4994037;28;87453;-62
2023/12/31 11:36:59;;;;;;;3.47;1.27;;;22.60;49.70;;;;;;4974653;28;91940;-62
2023/12/31 11:39:25;;;;;;;2.78;0.93;;;22.60;49.50;;;;;;4957312;28;87846;-63
2023/12/31 11:41:54;;;;;;;2.25;0.82;;;22.60;49.30;;;;;;4958211;28;88246;-62
2023/12/31 11:44:38;;;;;;;2.25;0.90;;;22.60;49.80;;;;;;4957147;28;87430;-63
2023/12/31 11:47:25;;;;;;;2.45;0.90;;;22.60;49.60;;;;;;4958852;28;86889;-63
2023/12/31 11:50:17;;;;;;;3.00;0.98;;;22.70;49.90;;;;;;4975303;28;89313;-63
2023/12/31 11:52:44;;;;;;;2.30;0.82;;;22.70;50.20;;;;;;4973523;28;86925;-63
2023/12/31 11:55:11;;;;;;;3.67;1.17;;;22.70;50.00;;;;;;4974533;28;88498;-62
2023/12/31 11:57:38;;;;;;;2.33;1.00;;;22.70;50.00;;;;;;4993294;28;88489;-62
2023/12/31 12:00:08;;;;;;;4.75;1.38;;;22.70;50.20;;;;;;4973251;28;88246;-63
2023/12/31 12:02:34;;;;;;;2.97;1.00;;;22.70;50.20;;;;;;4971849;28;88276;-63
2023/12/31 12:05:00;;;;;;;2.90;1.10;;;22.70;50.30;;;;;;4977102;28;88364;-62
2023/12/31 12:07:27;;;;;;;1.95;0.73;;;22.70;50.40;;;;;;4972367;28;87293;-63
2023/12/31 12:09:53;;;;;;;2.63;0.98;;;22.70;50.60;;;;;;4993008;28;87892;-62
2023/12/31 12:12:19;;;;;;;3.47;1.00;;;22.70;50.70;;;;;;4992528;28;88222;-63
2023/12/31 12:14:48;;;;;;;2.10;0.93;;;22.80;50.80;;;;;;4978055;28;88100;-62
2023/12/31 12:17:16;;;;;;;3.38;1.25;;;22.80;50.90;;;;;;4968683;28;87728;-63
2023/12/31 12:19:43;;;;;;;2.20;0.90;;;22.70;50.80;;;;;;4973644;28;88738;-77
2023/12/31 12:22:09;;;;;;;2.25;1.02;;;22.80;50.80;;;;;;4977011;28;88407;-75
2023/12/31 12:24:35;;;;;;;3.60;1.25;;;22.80;51.10;;;;;;4989563;28;87769;-70
2023/12/31 12:27:02;;;;;;;2.78;1.15;;;22.80;51.10;;;;;;4977703;28;87862;-76
2023/12/31 12:29:28;;;;;;;2.80;1.17;;;22.80;51.10;;;;;;4967677;28;87852;-75
2023/12/31 12:31:54;;;;;;;2.38;1.00;;;22.80;51.20;;;;;;4977485;28;88369;-77
2023/12/31 12:34:20;;;;;;;3.03;1.13;;;22.90;51.30;;;;;;4980009;28;87507;-73
2023/12/31 12:36:48;;;;;;;3.33;1.13;;;22.90;51.40;;;;;;4974005;28;87397;-62
2023/12/31 12:39:20;;;;;;;4.07;1.10;;;22.80;51.40;;;;;;4988332;28;88047;-62
2023/12/31 12:41:51;;;;;;;2.15;0.95;;;22.80;51.30;;;;;;4973745;28;89074;-62
2023/12/31 12:44:18;;;;;;;5.43;1.33;;;22.80;51.50;;;;;;4973266;28;88371;-61
2023/12/31 12:46:47;;;;;;;2.47;1.15;;;22.80;51.50;;;;;;4970153;28;87039;-62
2023/12/31 12:49:14;;;;;;;3.73;1.17;;;22.80;51.30;;;;;;4989530;28;89032;-62